sensor_id;sensor_type;location;lat;lon;timestamp;P1;durP1;ratioP1;P2;durP2;ratioP2
74912;SDS011;63878;55.624;37.304;2024-01-30T00:00:58;11.80;;;6.30;;
74912;SDS011;63878;55.624;37.304;2024-01-30T00:10:59;14.77;;;7.78;;
74912;SDS011;63878;55.624;37.304;2024-01-30T00:21:00;10.48;;;5.55;;
74912;SDS011;63878;55.624;37.304;2024-01-30T00:31:01;12.43;;;6.53;;
74912;SDS011;63878;55.624;37.304;2024-01-30T00:41:01;10.30;;;4.53;;
74912;SDS011;63878;55.624;37.304;2024-01-30T00:51:02;12.67;;;6.57;;
74912;SDS011;63878;55.624;37.304;2024-01-30T01:01:03;13.57;;;5.65;;
74912;SDS011;63878;55.624;37.304;2024-01-30T01:11:04;11.15;;;6.43;;
74912;SDS011;63878;55.624;37.304;2024-01-30T01:21:04;11.47;;;5.13;;
74912;SDS011;63878;55.624;37.304;2024-01-30T01:31:05;12.95;;;7.43;;
74912;SDS011;63878;55.624;37.304;2024-01-30T01:41:07;14.63;;;6.25;;
74912;SDS011;63878;55.624;37.304;2024-01-30T01:51:07;14.63;;;7.15;;
74912;SDS011;63878;55.624;37.304;2024-01-30T02:01:09;15.98;;;8.50;;
74912;SDS011;63878;55.624;37.304;2024-01-30T02:11:11;10.70;;;5.95;;
74912;SDS011;63878;55.624;37.304;2024-01-30T02:21:13;14.20;;;8.20;;
74912;SDS011;63878;55.624;37.304;2024-01-30T02:31:17;15.27;;;7.43;;
74912;SDS011;63878;55.624;37.304;2024-01-30T02:41:17;15.00;;;6.20;;
74912;SDS011;63878;55.624;37.304;2024-01-30T02:51:18;14.68;;;7.75;;
74912;SDS011;63878;55.624;37.304;2024-01-30T03:01:18;11.47;;;6.43;;
74912;SDS011;63878;55.624;37.304;2024-01-30T03:11:20;11.15;;;5.63;;
74912;SDS011;63878;55.624;37.304;2024-01-30T03:21:20;17.15;;;7.75;;
74912;SDS011;63878;55.624;37.304;2024-01-30T03:31:21;14.20;;;7.47;;
74912;SDS011;63878;55.624;37.304;2024-01-30T03:41:21;13.90;;;7.30;;
74912;SDS011;63878;55.624;37.304;2024-01-30T03:51:22;13.80;;;6.95;;
74912;SDS011;63878;55.624;37.304;2024-01-30T04:01:23;9.87;;;5.83;;
74912;SDS011;63878;55.624;37.304;2024-01-30T04:11:23;11.87;;;6.70;;
74912;SDS011;63878;55.624;37.304;2024-01-30T04:21:24;10.25;;;6.07;;
74912;SDS011;63878;55.624;37.304;2024-01-30T04:31:24;12.43;;;6.37;;
74912;SDS011;63878;55.624;37.304;2024-01-30T04:41:25;11.10;;;6.28;;
74912;SDS011;63878;55.624;37.304;2024-01-30T04:51:25;11.20;;;5.90;;
74912;SDS011;63878;55.624;37.304;2024-01-30T05:01:26;9.70;;;5.43;;
74912;SDS011;63878;55.624;37.304;2024-01-30T05:11:26;11.20;;;6.03;;
74912;SDS011;63878;55.624;37.304;2024-01-30T05:21:26;12.25;;;6.15;;
74912;SDS011;63878;55.624;37.304;2024-01-30T05:31:27;12.13;;;5.82;;
74912;SDS011;63878;55.624;37.304;2024-01-30T05:51:28;14.10;;;5.75;;
74912;SDS011;63878;55.624;37.304;2024-01-30T06:01:28;8.00;;;4.78;;
74912;SDS011;63878;55.624;37.304;2024-01-30T06:11:29;9.90;;;5.88;;
74912;SDS011;63878;55.624;37.304;2024-01-30T06:31:29;10.23;;;5.60;;
74912;SDS011;63878;55.624;37.304;2024-01-30T06:41:30;10.63;;;5.90;;
74912;SDS011;63878;55.624;37.304;2024-01-30T06:51:31;9.30;;;5.22;;
74912;SDS011;63878;55.624;37.304;2024-01-30T07:01:31;11.77;;;5.63;;
74912;SDS011;63878;55.624;37.304;2024-01-30T07:11:32;12.27;;;6.43;;
74912;SDS011;63878;55.624;37.304;2024-01-30T07:21:32;13.02;;;7.15;;
74912;SDS011;63878;55.624;37.304;2024-01-30T07:31:32;11.73;;;5.93;;
74912;SDS011;63878;55.624;37.304;2024-01-30T07:41:33;10.10;;;5.32;;
74912;SDS011;63878;55.624;37.304;2024-01-30T07:51:33;10.75;;;5.55;;
74912;SDS011;63878;55.624;37.304;2024-01-30T08:01:34;11.82;;;5.80;;
74912;SDS011;63878;55.624;37.304;2024-01-30T08:11:34;13.55;;;5.75;;
74912;SDS011;63878;55.624;37.304;2024-01-30T08:21:35;10.63;;;4.97;;
74912;SDS011;63878;55.624;37.304;2024-01-30T08:31:35;9.93;;;5.60;;
74912;SDS011;63878;55.624;37.304;2024-01-30T08:41:36;9.95;;;4.85;;
74912;SDS011;63878;55.624;37.304;2024-01-30T08:51:36;11.00;;;6.28;;
74912;SDS011;63878;55.624;37.304;2024-01-30T09:01:37;10.95;;;6.10;;
74912;SDS011;63878;55.624;37.304;2024-01-30T09:11:37;11.73;;;5.67;;
74912;SDS011;63878;55.624;37.304;2024-01-30T09:21:38;12.88;;;5.70;;
74912;SDS011;63878;55.624;37.304;2024-01-30T09:31:42;14.13;;;6.43;;
74912;SDS011;63878;55.624;37.304;2024-01-30T09:41:51;10.52;;;5.60;;
74912;SDS011;63878;55.624;37.304;2024-01-30T09:52:02;12.15;;;6.03;;
74912;SDS011;63878;55.624;37.304;2024-01-30T10:02:04;11.45;;;6.38;;
74912;SDS011;63878;55.624;37.304;2024-01-30T10:12:04;12.80;;;6.78;;
74912;SDS011;63878;55.624;37.304;2024-01-30T10:22:06;13.38;;;5.20;;
74912;SDS011;63878;55.624;37.304;2024-01-30T10:32:08;13.43;;;6.93;;
74912;SDS011;63878;55.624;37.304;2024-01-30T10:42:12;14.43;;;6.97;;
74912;SDS011;63878;55.624;37.304;2024-01-30T10:52:16;13.07;;;6.43;;
74912;SDS011;63878;55.624;37.304;2024-01-30T11:02:18;11.60;;;6.60;;
74912;SDS011;63878;55.624;37.304;2024-01-30T11:12:23;12.38;;;5.88;;
74912;SDS011;63878;55.624;37.304;2024-01-30T11:22:25;15.40;;;6.43;;
74912;SDS011;63878;55.624;37.304;2024-01-30T11:32:27;13.10;;;5.93;;
74912;SDS011;63878;55.624;37.304;2024-01-30T11:42:28;14.13;;;6.25;;
74912;SDS011;63878;55.624;37.304;2024-01-30T11:52:31;11.52;;;6.15;;
74912;SDS011;63878;55.624;37.304;2024-01-30T12:02:32;15.15;;;7.35;;
74912;SDS011;63878;55.624;37.304;2024-01-30T12:12:33;12.35;;;5.32;;
74912;SDS011;63878;55.624;37.304;2024-01-30T12:22:37;14.50;;;6.82;;
74912;SDS011;63878;55.624;37.304;2024-01-30T12:32:39;15.10;;;6.80;;
74912;SDS011;63878;55.624;37.304;2024-01-30T12:42:47;11.27;;;6.13;;
74912;SDS011;63878;55.624;37.304;2024-01-30T12:52:48;14.55;;;6.72;;
74912;SDS011;63878;55.624;37.304;2024-01-30T13:02:49;14.25;;;6.85;;
74912;SDS011;63878;55.624;37.304;2024-01-30T13:12:50;18.02;;;7.68;;
74912;SDS011;63878;55.624;37.304;2024-01-30T13:22:51;20.98;;;7.72;;
74912;SDS011;63878;55.624;37.304;2024-01-30T13:32:51;15.23;;;6.97;;
74912;SDS011;63878;55.624;37.304;2024-01-30T13:42:52;14.03;;;7.23;;
74912;SDS011;63878;55.624;37.304;2024-01-30T13:52:53;16.05;;;7.88;;
74912;SDS011;63878;55.624;37.304;2024-01-30T14:02:53;19.50;;;8.10;;
74912;SDS011;63878;55.624;37.304;2024-01-30T14:12:55;13.50;;;6.88;;
74912;SDS011;63878;55.624;37.304;2024-01-30T14:22:56;14.10;;;6.65;;
74912;SDS011;63878;55.624;37.304;2024-01-30T14:32:56;22.77;;;9.05;;
74912;SDS011;63878;55.624;37.304;2024-01-30T14:42:57;15.20;;;7.28;;
74912;SDS011;63878;55.624;37.304;2024-01-30T14:52:58;16.97;;;7.73;;
74912;SDS011;63878;55.624;37.304;2024-01-30T15:02:58;17.97;;;7.17;;
74912;SDS011;63878;55.624;37.304;2024-01-30T15:12:59;17.15;;;8.38;;
74912;SDS011;63878;55.624;37.304;2024-01-30T15:22:59;17.40;;;7.65;;
74912;SDS011;63878;55.624;37.304;2024-01-30T15:33:00;22.05;;;7.65;;
74912;SDS011;63878;55.624;37.304;2024-01-30T15:43:02;18.10;;;8.20;;
74912;SDS011;63878;55.624;37.304;2024-01-30T15:53:02;16.13;;;6.90;;
74912;SDS011;63878;55.624;37.304;2024-01-30T16:03:07;17.58;;;7.93;;
74912;SDS011;63878;55.624;37.304;2024-01-30T16:13:08;18.00;;;8.20;;
74912;SDS011;63878;55.624;37.304;2024-01-30T16:23:09;21.63;;;8.70;;
74912;SDS011;63878;55.624;37.304;2024-01-30T16:33:10;20.63;;;8.35;;
74912;SDS011;63878;55.624;37.304;2024-01-30T16:43:14;17.73;;;8.13;;
74912;SDS011;63878;55.624;37.304;2024-01-30T16:53:15;17.67;;;7.97;;
74912;SDS011;63878;55.624;37.304;2024-01-30T17:03:16;17.92;;;8.05;;
74912;SDS011;63878;55.624;37.304;2024-01-30T17:13:16;21.15;;;8.00;;
74912;SDS011;63878;55.624;37.304;2024-01-30T17:23:17;24.33;;;10.40;;
74912;SDS011;63878;55.624;37.304;2024-01-30T17:33:17;19.37;;;8.77;;
74912;SDS011;63878;55.624;37.304;2024-01-30T17:43:18;19.50;;;8.48;;
74912;SDS011;63878;55.624;37.304;2024-01-30T17:53:18;18.73;;;9.35;;
74912;SDS011;63878;55.624;37.304;2024-01-30T18:03:19;26.08;;;10.88;;
74912;SDS011;63878;55.624;37.304;2024-01-30T18:13:19;18.50;;;9.10;;
74912;SDS011;63878;55.624;37.304;2024-01-30T18:23:20;22.92;;;10.00;;
74912;SDS011;63878;55.624;37.304;2024-01-30T18:33:20;16.35;;;8.85;;
74912;SDS011;63878;55.624;37.304;2024-01-30T18:43:21;20.80;;;9.07;;
74912;SDS011;63878;55.624;37.304;2024-01-30T18:53:21;22.08;;;9.18;;
74912;SDS011;63878;55.624;37.304;2024-01-30T19:03:23;19.13;;;8.30;;
74912;SDS011;63878;55.624;37.304;2024-01-30T19:13:23;18.88;;;8.55;;
74912;SDS011;63878;55.624;37.304;2024-01-30T19:23:24;17.02;;;8.25;;
74912;SDS011;63878;55.624;37.304;2024-01-30T19:33:25;19.15;;;8.88;;
74912;SDS011;63878;55.624;37.304;2024-01-30T19:43:26;19.60;;;9.07;;
74912;SDS011;63878;55.624;37.304;2024-01-30T19:53:26;15.60;;;8.43;;
74912;SDS011;63878;55.624;37.304;2024-01-30T20:03:27;19.97;;;8.67;;
74912;SDS011;63878;55.624;37.304;2024-01-30T20:13:27;18.53;;;9.13;;
74912;SDS011;63878;55.624;37.304;2024-01-30T20:23:28;18.05;;;7.97;;
74912;SDS011;63878;55.624;37.304;2024-01-30T20:33:29;18.05;;;7.72;;
74912;SDS011;63878;55.624;37.304;2024-01-30T20:43:30;19.45;;;9.10;;
74912;SDS011;63878;55.624;37.304;2024-01-30T20:53:30;22.80;;;9.27;;
74912;SDS011;63878;55.624;37.304;2024-01-30T21:03:32;19.52;;;8.55;;
74912;SDS011;63878;55.624;37.304;2024-01-30T21:13:32;17.65;;;8.10;;
74912;SDS011;63878;55.624;37.304;2024-01-30T21:23:33;16.67;;;8.43;;
74912;SDS011;63878;55.624;37.304;2024-01-30T21:33:34;19.30;;;8.88;;
74912;SDS011;63878;55.624;37.304;2024-01-30T21:43:35;17.27;;;8.70;;
74912;SDS011;63878;55.624;37.304;2024-01-30T21:53:36;17.10;;;8.55;;
74912;SDS011;63878;55.624;37.304;2024-01-30T22:03:36;16.03;;;8.93;;
74912;SDS011;63878;55.624;37.304;2024-01-30T22:13:37;27.88;;;13.98;;
74912;SDS011;63878;55.624;37.304;2024-01-30T22:23:38;19.17;;;8.73;;
74912;SDS011;63878;55.624;37.304;2024-01-30T22:33:38;16.90;;;8.18;;
74912;SDS011;63878;55.624;37.304;2024-01-30T22:43:39;22.13;;;9.80;;
74912;SDS011;63878;55.624;37.304;2024-01-30T22:53:39;21.50;;;9.87;;
74912;SDS011;63878;55.624;37.304;2024-01-30T23:03:40;22.45;;;10.80;;
74912;SDS011;63878;55.624;37.304;2024-01-30T23:13:41;21.23;;;10.13;;
74912;SDS011;63878;55.624;37.304;2024-01-30T23:23:41;22.98;;;12.13;;
74912;SDS011;63878;55.624;37.304;2024-01-30T23:33:42;27.88;;;13.73;;
74912;SDS011;63878;55.624;37.304;2024-01-30T23:43:42;24.30;;;11.50;;
74912;SDS011;63878;55.624;37.304;2024-01-30T23:53:43;21.52;;;9.57;;
